sensor_id;sensor_type;location;lat;lon;timestamp;P1;durP1;ratioP1;P2;durP2;ratioP2
6251;SDS011;3159;52.414;9.784;2023-05-19T00:01:06;6.57;;;2.50;;
6251;SDS011;3159;52.414;9.784;2023-05-19T00:03:34;6.37;;;2.40;;
6251;SDS011;3159;52.414;9.784;2023-05-19T00:06:04;5.87;;;2.20;;
6251;SDS011;3159;52.414;9.784;2023-05-19T00:08:34;5.87;;;2.70;;
6251;SDS011;3159;52.414;9.784;2023-05-19T00:11:03;5.20;;;2.63;;
6251;SDS011;3159;52.414;9.784;2023-05-19T00:13:31;5.03;;;2.40;;
6251;SDS011;3159;52.414;9.784;2023-05-19T00:15:59;5.53;;;2.30;;
6251;SDS011;3159;52.414;9.784;2023-05-19T00:18:26;5.17;;;2.47;;
6251;SDS011;3159;52.414;9.784;2023-05-19T00:20:53;6.57;;;2.67;;
6251;SDS011;3159;52.414;9.784;2023-05-19T00:23:20;6.07;;;2.60;;
6251;SDS011;3159;52.414;9.784;2023-05-19T00:25:48;4.57;;;2.67;;
6251;SDS011;3159;52.414;9.784;2023-05-19T00:28:17;6.03;;;2.50;;
6251;SDS011;3159;52.414;9.784;2023-05-19T00:30:43;8.13;;;2.43;;
6251;SDS011;3159;52.414;9.784;2023-05-19T00:33:10;6.00;;;2.30;;
6251;SDS011;3159;52.414;9.784;2023-05-19T00:35:37;5.07;;;2.50;;
6251;SDS011;3159;52.414;9.784;2023-05-19T00:38:04;4.60;;;2.43;;
6251;SDS011;3159;52.414;9.784;2023-05-19T00:40:31;5.80;;;2.80;;
6251;SDS011;3159;52.414;9.784;2023-05-19T00:43:01;2.97;;;2.27;;
6251;SDS011;3159;52.414;9.784;2023-05-19T00:45:29;5.27;;;2.83;;
6251;SDS011;3159;52.414;9.784;2023-05-19T00:47:56;6.53;;;2.60;;
6251;SDS011;3159;52.414;9.784;2023-05-19T00:50:23;8.90;;;3.20;;
6251;SDS011;3159;52.414;9.784;2023-05-19T00:52:51;4.97;;;2.50;;
6251;SDS011;3159;52.414;9.784;2023-05-19T00:55:18;6.27;;;2.47;;
6251;SDS011;3159;52.414;9.784;2023-05-19T00:57:46;6.63;;;2.60;;
6251;SDS011;3159;52.414;9.784;2023-05-19T01:00:16;7.93;;;2.70;;
6251;SDS011;3159;52.414;9.784;2023-05-19T01:02:43;8.33;;;2.53;;
6251;SDS011;3159;52.414;9.784;2023-05-19T01:05:10;4.30;;;2.60;;
6251;SDS011;3159;52.414;9.784;2023-05-19T01:07:38;5.90;;;2.90;;
6251;SDS011;3159;52.414;9.784;2023-05-19T01:10:06;5.33;;;2.70;;
6251;SDS011;3159;52.414;9.784;2023-05-19T01:12:33;5.00;;;2.80;;
6251;SDS011;3159;52.414;9.784;2023-05-19T01:15:00;9.60;;;2.80;;
6251;SDS011;3159;52.414;9.784;2023-05-19T01:17:34;6.03;;;2.70;;
6251;SDS011;3159;52.414;9.784;2023-05-19T01:20:07;6.27;;;2.60;;
6251;SDS011;3159;52.414;9.784;2023-05-19T01:22:48;8.73;;;2.47;;
6251;SDS011;3159;52.414;9.784;2023-05-19T01:31:43;6.17;;;2.53;;
6251;SDS011;3159;52.414;9.784;2023-05-19T01:34:12;5.07;;;3.00;;
6251;SDS011;3159;52.414;9.784;2023-05-19T01:36:41;4.87;;;2.20;;
6251;SDS011;3159;52.414;9.784;2023-05-19T01:39:13;7.33;;;2.67;;
6251;SDS011;3159;52.414;9.784;2023-05-19T01:41:41;5.90;;;2.67;;
6251;SDS011;3159;52.414;9.784;2023-05-19T01:44:10;5.97;;;2.80;;
6251;SDS011;3159;52.414;9.784;2023-05-19T01:46:38;3.70;;;2.70;;
6251;SDS011;3159;52.414;9.784;2023-05-19T01:49:07;9.00;;;2.67;;
6251;SDS011;3159;52.414;9.784;2023-05-19T01:51:34;3.97;;;2.37;;
6251;SDS011;3159;52.414;9.784;2023-05-19T01:54:01;5.40;;;2.37;;
6251;SDS011;3159;52.414;9.784;2023-05-19T01:56:30;8.47;;;2.60;;
6251;SDS011;3159;52.414;9.784;2023-05-19T01:59:08;5.27;;;2.70;;
6251;SDS011;3159;52.414;9.784;2023-05-19T02:01:46;5.07;;;2.67;;
6251;SDS011;3159;52.414;9.784;2023-05-19T02:04:22;5.67;;;3.00;;
6251;SDS011;3159;52.414;9.784;2023-05-19T02:06:58;8.03;;;3.30;;
6251;SDS011;3159;52.414;9.784;2023-05-19T02:09:32;6.57;;;2.33;;
6251;SDS011;3159;52.414;9.784;2023-05-19T02:12:05;8.00;;;2.77;;
6251;SDS011;3159;52.414;9.784;2023-05-19T02:14:38;7.57;;;3.00;;
6251;SDS011;3159;52.414;9.784;2023-05-19T02:17:10;3.73;;;2.47;;
6251;SDS011;3159;52.414;9.784;2023-05-19T02:19:40;5.00;;;2.33;;
6251;SDS011;3159;52.414;9.784;2023-05-19T02:22:08;4.90;;;2.70;;
6251;SDS011;3159;52.414;9.784;2023-05-19T02:24:35;5.27;;;2.97;;
6251;SDS011;3159;52.414;9.784;2023-05-19T02:27:03;5.77;;;2.73;;
6251;SDS011;3159;52.414;9.784;2023-05-19T02:29:30;7.07;;;2.53;;
6251;SDS011;3159;52.414;9.784;2023-05-19T02:31:59;4.47;;;2.50;;
6251;SDS011;3159;52.414;9.784;2023-05-19T02:34:26;4.77;;;2.67;;
6251;SDS011;3159;52.414;9.784;2023-05-19T02:36:54;7.80;;;2.87;;
6251;SDS011;3159;52.414;9.784;2023-05-19T02:39:21;6.40;;;2.87;;
6251;SDS011;3159;52.414;9.784;2023-05-19T02:41:47;6.70;;;2.40;;
6251;SDS011;3159;52.414;9.784;2023-05-19T02:44:14;6.43;;;2.97;;
6251;SDS011;3159;52.414;9.784;2023-05-19T02:46:41;6.20;;;2.70;;
6251;SDS011;3159;52.414;9.784;2023-05-19T02:49:08;7.77;;;3.23;;
6251;SDS011;3159;52.414;9.784;2023-05-19T02:51:35;5.67;;;2.67;;
6251;SDS011;3159;52.414;9.784;2023-05-19T02:54:03;5.63;;;2.70;;
6251;SDS011;3159;52.414;9.784;2023-05-19T02:56:30;5.43;;;2.83;;
6251;SDS011;3159;52.414;9.784;2023-05-19T02:58:57;6.07;;;3.13;;
6251;SDS011;3159;52.414;9.784;2023-05-19T03:01:24;3.73;;;2.80;;
6251;SDS011;3159;52.414;9.784;2023-05-19T03:03:50;4.80;;;2.80;;
6251;SDS011;3159;52.414;9.784;2023-05-19T03:06:17;7.17;;;2.97;;
6251;SDS011;3159;52.414;9.784;2023-05-19T03:08:47;7.27;;;2.90;;
6251;SDS011;3159;52.414;9.784;2023-05-19T03:11:15;5.77;;;3.00;;
6251;SDS011;3159;52.414;9.784;2023-05-19T03:13:42;5.60;;;2.90;;
6251;SDS011;3159;52.414;9.784;2023-05-19T03:16:09;5.13;;;2.80;;
6251;SDS011;3159;52.414;9.784;2023-05-19T03:18:37;5.33;;;2.83;;
6251;SDS011;3159;52.414;9.784;2023-05-19T03:21:03;4.57;;;2.77;;
6251;SDS011;3159;52.414;9.784;2023-05-19T03:23:30;5.73;;;3.03;;
6251;SDS011;3159;52.414;9.784;2023-05-19T03:25:57;4.70;;;3.17;;
6251;SDS011;3159;52.414;9.784;2023-05-19T03:28:26;5.27;;;3.10;;
6251;SDS011;3159;52.414;9.784;2023-05-19T03:30:53;4.33;;;3.27;;
6251;SDS011;3159;52.414;9.784;2023-05-19T03:33:20;7.17;;;3.33;;
6251;SDS011;3159;52.414;9.784;2023-05-19T03:35:47;7.00;;;3.37;;
6251;SDS011;3159;52.414;9.784;2023-05-19T03:38:14;4.97;;;2.87;;
6251;SDS011;3159;52.414;9.784;2023-05-19T03:40:41;9.57;;;3.60;;
6251;SDS011;3159;52.414;9.784;2023-05-19T03:43:09;5.37;;;3.00;;
6251;SDS011;3159;52.414;9.784;2023-05-19T03:45:37;8.47;;;3.60;;
6251;SDS011;3159;52.414;9.784;2023-05-19T03:48:04;5.40;;;3.30;;
6251;SDS011;3159;52.414;9.784;2023-05-19T03:50:31;6.30;;;3.47;;
6251;SDS011;3159;52.414;9.784;2023-05-19T03:52:58;9.10;;;3.57;;
6251;SDS011;3159;52.414;9.784;2023-05-19T03:55:25;5.87;;;3.30;;
6251;SDS011;3159;52.414;9.784;2023-05-19T03:57:53;7.87;;;3.07;;
6251;SDS011;3159;52.414;9.784;2023-05-19T04:00:21;5.93;;;3.63;;
6251;SDS011;3159;52.414;9.784;2023-05-19T04:02:49;6.40;;;3.50;;
6251;SDS011;3159;52.414;9.784;2023-05-19T04:05:16;7.70;;;3.40;;
6251;SDS011;3159;52.414;9.784;2023-05-19T04:07:43;8.20;;;3.60;;
6251;SDS011;3159;52.414;9.784;2023-05-19T04:10:11;6.50;;;3.60;;
6251;SDS011;3159;52.414;9.784;2023-05-19T04:12:38;7.47;;;3.93;;
6251;SDS011;3159;52.414;9.784;2023-05-19T04:15:05;8.53;;;4.07;;
6251;SDS011;3159;52.414;9.784;2023-05-19T04:17:35;5.83;;;3.20;;
6251;SDS011;3159;52.414;9.784;2023-05-19T04:20:04;6.37;;;4.23;;
6251;SDS011;3159;52.414;9.784;2023-05-19T04:22:31;8.57;;;4.47;;
6251;SDS011;3159;52.414;9.784;2023-05-19T04:24:58;5.87;;;3.93;;
6251;SDS011;3159;52.414;9.784;2023-05-19T04:27:25;5.90;;;4.20;;
6251;SDS011;3159;52.414;9.784;2023-05-19T04:29:54;8.00;;;3.50;;
6251;SDS011;3159;52.414;9.784;2023-05-19T04:32:22;6.00;;;3.67;;
6251;SDS011;3159;52.414;9.784;2023-05-19T04:34:49;9.33;;;3.70;;
6251;SDS011;3159;52.414;9.784;2023-05-19T04:37:17;6.77;;;4.33;;
6251;SDS011;3159;52.414;9.784;2023-05-19T04:39:45;6.60;;;3.50;;
6251;SDS011;3159;52.414;9.784;2023-05-19T04:42:12;7.33;;;3.70;;
6251;SDS011;3159;52.414;9.784;2023-05-19T04:44:43;4.63;;;3.23;;
6251;SDS011;3159;52.414;9.784;2023-05-19T04:47:09;5.30;;;3.40;;
6251;SDS011;3159;52.414;9.784;2023-05-19T04:49:37;5.73;;;3.47;;
6251;SDS011;3159;52.414;9.784;2023-05-19T04:52:05;7.03;;;3.40;;
6251;SDS011;3159;52.414;9.784;2023-05-19T04:54:36;9.30;;;3.83;;
6251;SDS011;3159;52.414;9.784;2023-05-19T04:57:03;7.27;;;3.80;;
6251;SDS011;3159;52.414;9.784;2023-05-19T04:59:31;7.93;;;3.70;;
6251;SDS011;3159;52.414;9.784;2023-05-19T05:01:57;7.33;;;3.63;;
6251;SDS011;3159;52.414;9.784;2023-05-19T05:04:24;6.77;;;3.60;;
6251;SDS011;3159;52.414;9.784;2023-05-19T05:06:51;9.33;;;3.67;;
6251;SDS011;3159;52.414;9.784;2023-05-19T05:09:18;8.83;;;3.93;;
6251;SDS011;3159;52.414;9.784;2023-05-19T05:11:47;7.33;;;3.83;;
6251;SDS011;3159;52.414;9.784;2023-05-19T05:14:15;7.47;;;3.50;;
6251;SDS011;3159;52.414;9.784;2023-05-19T05:16:42;9.90;;;3.90;;
6251;SDS011;3159;52.414;9.784;2023-05-19T05:19:10;7.77;;;4.10;;
6251;SDS011;3159;52.414;9.784;2023-05-19T05:21:37;7.53;;;3.37;;
6251;SDS011;3159;52.414;9.784;2023-05-19T05:24:05;6.03;;;3.57;;
6251;SDS011;3159;52.414;9.784;2023-05-19T05:26:33;7.73;;;3.57;;
6251;SDS011;3159;52.414;9.784;2023-05-19T05:29:02;9.17;;;4.67;;
6251;SDS011;3159;52.414;9.784;2023-05-19T05:31:29;5.23;;;3.70;;
6251;SDS011;3159;52.414;9.784;2023-05-19T05:33:56;9.87;;;3.60;;
6251;SDS011;3159;52.414;9.784;2023-05-19T05:36:23;9.80;;;4.10;;
6251;SDS011;3159;52.414;9.784;2023-05-19T05:38:50;8.27;;;3.63;;
6251;SDS011;3159;52.414;9.784;2023-05-19T05:41:17;10.17;;;3.73;;
6251;SDS011;3159;52.414;9.784;2023-05-19T05:43:43;11.97;;;4.00;;
6251;SDS011;3159;52.414;9.784;2023-05-19T05:46:12;8.43;;;3.93;;
6251;SDS011;3159;52.414;9.784;2023-05-19T05:48:39;10.00;;;4.20;;
6251;SDS011;3159;52.414;9.784;2023-05-19T05:51:07;8.93;;;4.07;;
6251;SDS011;3159;52.414;9.784;2023-05-19T05:53:35;8.43;;;3.93;;
6251;SDS011;3159;52.414;9.784;2023-05-19T05:56:06;4.77;;;3.17;;
6251;SDS011;3159;52.414;9.784;2023-05-19T05:58:34;7.93;;;3.90;;
6251;SDS011;3159;52.414;9.784;2023-05-19T06:01:01;7.90;;;3.60;;
6251;SDS011;3159;52.414;9.784;2023-05-19T06:03:30;8.80;;;3.33;;
6251;SDS011;3159;52.414;9.784;2023-05-19T06:05:57;6.37;;;3.33;;
6251;SDS011;3159;52.414;9.784;2023-05-19T06:08:24;5.43;;;3.43;;
6251;SDS011;3159;52.414;9.784;2023-05-19T06:10:51;9.47;;;3.40;;
6251;SDS011;3159;52.414;9.784;2023-05-19T06:13:18;7.70;;;3.43;;
6251;SDS011;3159;52.414;9.784;2023-05-19T06:15:47;6.83;;;3.20;;
6251;SDS011;3159;52.414;9.784;2023-05-19T06:18:14;7.00;;;3.30;;
6251;SDS011;3159;52.414;9.784;2023-05-19T06:20:43;8.37;;;3.27;;
6251;SDS011;3159;52.414;9.784;2023-05-19T06:23:10;7.50;;;3.03;;
6251;SDS011;3159;52.414;9.784;2023-05-19T06:25:36;6.87;;;2.83;;
6251;SDS011;3159;52.414;9.784;2023-05-19T06:28:03;11.00;;;3.60;;
6251;SDS011;3159;52.414;9.784;2023-05-19T06:30:30;7.77;;;3.13;;
6251;SDS011;3159;52.414;9.784;2023-05-19T06:32:57;8.57;;;3.07;;
6251;SDS011;3159;52.414;9.784;2023-05-19T06:35:24;6.03;;;3.03;;
6251;SDS011;3159;52.414;9.784;2023-05-19T06:37:52;9.10;;;3.20;;
6251;SDS011;3159;52.414;9.784;2023-05-19T06:40:19;7.43;;;2.60;;
6251;SDS011;3159;52.414;9.784;2023-05-19T06:42:46;5.93;;;2.97;;
6251;SDS011;3159;52.414;9.784;2023-05-19T06:45:13;6.70;;;3.27;;
6251;SDS011;3159;52.414;9.784;2023-05-19T06:47:40;3.33;;;2.60;;
6251;SDS011;3159;52.414;9.784;2023-05-19T06:50:08;6.03;;;2.97;;
6251;SDS011;3159;52.414;9.784;2023-05-19T06:52:36;5.13;;;2.80;;
6251;SDS011;3159;52.414;9.784;2023-05-19T06:55:04;7.47;;;2.90;;
6251;SDS011;3159;52.414;9.784;2023-05-19T06:57:32;6.43;;;3.37;;
6251;SDS011;3159;52.414;9.784;2023-05-19T06:59:59;7.87;;;3.03;;
6251;SDS011;3159;52.414;9.784;2023-05-19T07:02:25;8.07;;;2.87;;
6251;SDS011;3159;52.414;9.784;2023-05-19T07:04:52;9.40;;;3.73;;
6251;SDS011;3159;52.414;9.784;2023-05-19T07:07:19;6.20;;;3.00;;
6251;SDS011;3159;52.414;9.784;2023-05-19T07:09:46;6.97;;;2.67;;
6251;SDS011;3159;52.414;9.784;2023-05-19T07:12:14;7.40;;;2.60;;
6251;SDS011;3159;52.414;9.784;2023-05-19T07:14:41;4.50;;;2.20;;
6251;SDS011;3159;52.414;9.784;2023-05-19T07:17:08;2.67;;;1.93;;
6251;SDS011;3159;52.414;9.784;2023-05-19T07:19:35;5.80;;;2.50;;
6251;SDS011;3159;52.414;9.784;2023-05-19T07:22:02;5.40;;;2.13;;
6251;SDS011;3159;52.414;9.784;2023-05-19T07:24:29;4.27;;;2.33;;
6251;SDS011;3159;52.414;9.784;2023-05-19T07:26:56;5.47;;;2.40;;
6251;SDS011;3159;52.414;9.784;2023-05-19T07:29:24;9.13;;;2.70;;
6251;SDS011;3159;52.414;9.784;2023-05-19T07:31:51;7.60;;;2.63;;
6251;SDS011;3159;52.414;9.784;2023-05-19T07:34:21;6.47;;;2.40;;
6251;SDS011;3159;52.414;9.784;2023-05-19T07:36:48;7.53;;;2.37;;
6251;SDS011;3159;52.414;9.784;2023-05-19T07:39:16;7.03;;;2.53;;
6251;SDS011;3159;52.414;9.784;2023-05-19T07:41:43;8.37;;;2.27;;
6251;SDS011;3159;52.414;9.784;2023-05-19T07:44:16;5.70;;;2.33;;
6251;SDS011;3159;52.414;9.784;2023-05-19T07:46:44;5.23;;;1.97;;
6251;SDS011;3159;52.414;9.784;2023-05-19T07:49:11;5.50;;;2.30;;
6251;SDS011;3159;52.414;9.784;2023-05-19T07:51:38;9.87;;;2.60;;
6251;SDS011;3159;52.414;9.784;2023-05-19T07:54:05;6.63;;;2.30;;
6251;SDS011;3159;52.414;9.784;2023-05-19T07:56:32;4.13;;;2.20;;
6251;SDS011;3159;52.414;9.784;2023-05-19T07:58:59;5.77;;;2.47;;
6251;SDS011;3159;52.414;9.784;2023-05-19T08:01:26;5.00;;;2.37;;
6251;SDS011;3159;52.414;9.784;2023-05-19T08:03:55;7.13;;;2.57;;
6251;SDS011;3159;52.414;9.784;2023-05-19T08:06:22;7.17;;;2.90;;
6251;SDS011;3159;52.414;9.784;2023-05-19T08:08:50;9.53;;;2.50;;
6251;SDS011;3159;52.414;9.784;2023-05-19T08:11:18;6.10;;;2.23;;
6251;SDS011;3159;52.414;9.784;2023-05-19T08:13:45;5.70;;;2.23;;
6251;SDS011;3159;52.414;9.784;2023-05-19T08:16:13;6.30;;;2.40;;
6251;SDS011;3159;52.414;9.784;2023-05-19T08:18:40;6.10;;;2.23;;
6251;SDS011;3159;52.414;9.784;2023-05-19T08:21:08;6.70;;;2.30;;
6251;SDS011;3159;52.414;9.784;2023-05-19T08:23:35;4.07;;;2.23;;
6251;SDS011;3159;52.414;9.784;2023-05-19T08:26:02;6.87;;;2.13;;
6251;SDS011;3159;52.414;9.784;2023-05-19T08:28:29;4.47;;;2.10;;
6251;SDS011;3159;52.414;9.784;2023-05-19T08:30:56;4.90;;;2.07;;
6251;SDS011;3159;52.414;9.784;2023-05-19T08:33:23;4.07;;;1.87;;
6251;SDS011;3159;52.414;9.784;2023-05-19T08:35:50;6.03;;;2.00;;
6251;SDS011;3159;52.414;9.784;2023-05-19T08:38:18;5.77;;;2.17;;
6251;SDS011;3159;52.414;9.784;2023-05-19T08:40:45;3.90;;;1.73;;
6251;SDS011;3159;52.414;9.784;2023-05-19T08:43:12;6.33;;;2.03;;
6251;SDS011;3159;52.414;9.784;2023-05-19T08:45:39;7.23;;;2.10;;
6251;SDS011;3159;52.414;9.784;2023-05-19T08:48:10;5.27;;;1.80;;
6251;SDS011;3159;52.414;9.784;2023-05-19T08:50:38;7.00;;;1.90;;
6251;SDS011;3159;52.414;9.784;2023-05-19T08:53:09;3.43;;;2.03;;
6251;SDS011;3159;52.414;9.784;2023-05-19T08:55:42;4.60;;;2.43;;
6251;SDS011;3159;52.414;9.784;2023-05-19T08:58:15;4.13;;;1.90;;
6251;SDS011;3159;52.414;9.784;2023-05-19T09:00:44;3.63;;;2.07;;
6251;SDS011;3159;52.414;9.784;2023-05-19T09:03:11;5.40;;;2.00;;
6251;SDS011;3159;52.414;9.784;2023-05-19T09:05:39;5.53;;;1.90;;
6251;SDS011;3159;52.414;9.784;2023-05-19T09:08:07;5.07;;;2.30;;
6251;SDS011;3159;52.414;9.784;2023-05-19T09:10:33;7.33;;;2.10;;
6251;SDS011;3159;52.414;9.784;2023-05-19T09:13:02;5.00;;;1.87;;
6251;SDS011;3159;52.414;9.784;2023-05-19T09:15:30;3.77;;;1.87;;
6251;SDS011;3159;52.414;9.784;2023-05-19T09:18:05;3.77;;;1.77;;
6251;SDS011;3159;52.414;9.784;2023-05-19T09:20:35;6.73;;;2.30;;
6251;SDS011;3159;52.414;9.784;2023-05-19T09:23:02;6.80;;;1.67;;
6251;SDS011;3159;52.414;9.784;2023-05-19T09:25:30;4.17;;;1.90;;
6251;SDS011;3159;52.414;9.784;2023-05-19T09:27:57;5.77;;;2.10;;
6251;SDS011;3159;52.414;9.784;2023-05-19T09:30:25;2.87;;;1.50;;
6251;SDS011;3159;52.414;9.784;2023-05-19T09:32:51;5.50;;;1.97;;
6251;SDS011;3159;52.414;9.784;2023-05-19T09:35:18;4.87;;;2.03;;
6251;SDS011;3159;52.414;9.784;2023-05-19T09:37:45;5.53;;;1.57;;
6251;SDS011;3159;52.414;9.784;2023-05-19T09:40:12;4.13;;;2.27;;
6251;SDS011;3159;52.414;9.784;2023-05-19T09:42:40;4.63;;;1.60;;
6251;SDS011;3159;52.414;9.784;2023-05-19T09:45:08;3.67;;;1.70;;
6251;SDS011;3159;52.414;9.784;2023-05-19T09:47:37;4.20;;;1.73;;
6251;SDS011;3159;52.414;9.784;2023-05-19T09:50:05;3.30;;;2.03;;
6251;SDS011;3159;52.414;9.784;2023-05-19T09:52:34;3.63;;;1.83;;
6251;SDS011;3159;52.414;9.784;2023-05-19T09:55:02;2.60;;;1.67;;
6251;SDS011;3159;52.414;9.784;2023-05-19T09:57:34;2.50;;;1.50;;
6251;SDS011;3159;52.414;9.784;2023-05-19T10:00:02;4.20;;;1.90;;
6251;SDS011;3159;52.414;9.784;2023-05-19T10:02:40;2.87;;;1.40;;
6251;SDS011;3159;52.414;9.784;2023-05-19T10:05:11;3.20;;;1.77;;
6251;SDS011;3159;52.414;9.784;2023-05-19T10:07:41;4.50;;;1.83;;
6251;SDS011;3159;52.414;9.784;2023-05-19T10:10:10;1.53;;;1.37;;
6251;SDS011;3159;52.414;9.784;2023-05-19T10:12:38;6.33;;;1.57;;
6251;SDS011;3159;52.414;9.784;2023-05-19T10:15:09;4.67;;;2.10;;
6251;SDS011;3159;52.414;9.784;2023-05-19T10:17:37;3.37;;;1.80;;
6251;SDS011;3159;52.414;9.784;2023-05-19T10:20:07;2.37;;;1.70;;
6251;SDS011;3159;52.414;9.784;2023-05-19T10:22:36;3.83;;;2.00;;
6251;SDS011;3159;52.414;9.784;2023-05-19T10:25:03;5.87;;;2.20;;
6251;SDS011;3159;52.414;9.784;2023-05-19T10:27:33;5.50;;;2.00;;
6251;SDS011;3159;52.414;9.784;2023-05-19T10:30:03;7.73;;;2.13;;
6251;SDS011;3159;52.414;9.784;2023-05-19T10:32:34;4.70;;;1.77;;
6251;SDS011;3159;52.414;9.784;2023-05-19T10:38:15;6.77;;;2.03;;
6251;SDS011;3159;52.414;9.784;2023-05-19T10:40:52;6.70;;;2.70;;
6251;SDS011;3159;52.414;9.784;2023-05-19T10:43:29;3.63;;;2.23;;
6251;SDS011;3159;52.414;9.784;2023-05-19T10:46:04;5.93;;;1.93;;
6251;SDS011;3159;52.414;9.784;2023-05-19T10:48:32;3.83;;;1.93;;
6251;SDS011;3159;52.414;9.784;2023-05-19T10:51:01;5.17;;;1.67;;
6251;SDS011;3159;52.414;9.784;2023-05-19T10:53:29;3.10;;;1.77;;
6251;SDS011;3159;52.414;9.784;2023-05-19T10:55:57;3.57;;;1.60;;
6251;SDS011;3159;52.414;9.784;2023-05-19T10:58:35;2.20;;;1.63;;
6251;SDS011;3159;52.414;9.784;2023-05-19T11:01:14;3.60;;;1.60;;
6251;SDS011;3159;52.414;9.784;2023-05-19T11:03:43;2.87;;;1.20;;
6251;SDS011;3159;52.414;9.784;2023-05-19T11:06:24;3.37;;;1.70;;
6251;SDS011;3159;52.414;9.784;2023-05-19T11:08:52;6.83;;;1.60;;
6251;SDS011;3159;52.414;9.784;2023-05-19T11:11:22;3.43;;;1.60;;
6251;SDS011;3159;52.414;9.784;2023-05-19T11:13:49;2.50;;;1.40;;
6251;SDS011;3159;52.414;9.784;2023-05-19T11:16:17;5.43;;;1.67;;
6251;SDS011;3159;52.414;9.784;2023-05-19T11:18:48;4.17;;;1.30;;
6251;SDS011;3159;52.414;9.784;2023-05-19T11:21:15;4.27;;;1.23;;
6251;SDS011;3159;52.414;9.784;2023-05-19T11:23:46;2.93;;;1.10;;
6251;SDS011;3159;52.414;9.784;2023-05-19T11:26:13;3.23;;;1.53;;
6251;SDS011;3159;52.414;9.784;2023-05-19T11:28:39;2.93;;;1.30;;
6251;SDS011;3159;52.414;9.784;2023-05-19T11:31:07;3.03;;;1.20;;
6251;SDS011;3159;52.414;9.784;2023-05-19T11:33:35;3.47;;;1.47;;
6251;SDS011;3159;52.414;9.784;2023-05-19T11:36:04;3.27;;;1.20;;
6251;SDS011;3159;52.414;9.784;2023-05-19T11:38:31;3.60;;;1.37;;
6251;SDS011;3159;52.414;9.784;2023-05-19T11:41:02;4.23;;;1.60;;
6251;SDS011;3159;52.414;9.784;2023-05-19T11:43:29;2.33;;;1.17;;
6251;SDS011;3159;52.414;9.784;2023-05-19T11:45:55;2.20;;;1.23;;
6251;SDS011;3159;52.414;9.784;2023-05-19T11:48:23;2.07;;;1.40;;
6251;SDS011;3159;52.414;9.784;2023-05-19T11:50:51;3.83;;;1.47;;
6251;SDS011;3159;52.414;9.784;2023-05-19T11:53:18;3.00;;;1.40;;
6251;SDS011;3159;52.414;9.784;2023-05-19T11:55:45;2.20;;;1.10;;
6251;SDS011;3159;52.414;9.784;2023-05-19T11:58:14;2.67;;;1.10;;
6251;SDS011;3159;52.414;9.784;2023-05-19T12:00:41;1.63;;;1.23;;
6251;SDS011;3159;52.414;9.784;2023-05-19T12:03:10;2.07;;;1.20;;
6251;SDS011;3159;52.414;9.784;2023-05-19T12:05:37;2.70;;;1.10;;
6251;SDS011;3159;52.414;9.784;2023-05-19T12:08:07;2.50;;;1.27;;
6251;SDS011;3159;52.414;9.784;2023-05-19T12:10:34;2.13;;;1.20;;
6251;SDS011;3159;52.414;9.784;2023-05-19T12:13:02;1.93;;;1.07;;
6251;SDS011;3159;52.414;9.784;2023-05-19T12:15:33;1.10;;;0.97;;
6251;SDS011;3159;52.414;9.784;2023-05-19T12:18:00;3.23;;;1.23;;
6251;SDS011;3159;52.414;9.784;2023-05-19T12:20:28;1.67;;;1.20;;
6251;SDS011;3159;52.414;9.784;2023-05-19T12:22:57;4.27;;;1.60;;
6251;SDS011;3159;52.414;9.784;2023-05-19T12:25:25;2.83;;;1.27;;
6251;SDS011;3159;52.414;9.784;2023-05-19T12:27:55;3.80;;;1.00;;
6251;SDS011;3159;52.414;9.784;2023-05-19T12:30:26;4.37;;;1.20;;
6251;SDS011;3159;52.414;9.784;2023-05-19T12:32:55;1.60;;;1.10;;
6251;SDS011;3159;52.414;9.784;2023-05-19T12:35:24;3.70;;;1.53;;
6251;SDS011;3159;52.414;9.784;2023-05-19T12:37:52;1.83;;;1.27;;
6251;SDS011;3159;52.414;9.784;2023-05-19T12:40:19;2.80;;;1.40;;
6251;SDS011;3159;52.414;9.784;2023-05-19T12:42:47;2.80;;;1.30;;
6251;SDS011;3159;52.414;9.784;2023-05-19T12:45:18;3.10;;;1.40;;
6251;SDS011;3159;52.414;9.784;2023-05-19T12:47:47;1.80;;;1.10;;
6251;SDS011;3159;52.414;9.784;2023-05-19T12:50:15;1.97;;;0.90;;
6251;SDS011;3159;52.414;9.784;2023-05-19T12:52:44;2.73;;;1.40;;
6251;SDS011;3159;52.414;9.784;2023-05-19T12:55:11;1.53;;;1.00;;
6251;SDS011;3159;52.414;9.784;2023-05-19T12:57:41;2.63;;;1.27;;
6251;SDS011;3159;52.414;9.784;2023-05-19T13:00:12;4.03;;;1.23;;
6251;SDS011;3159;52.414;9.784;2023-05-19T13:02:54;3.10;;;1.10;;
6251;SDS011;3159;52.414;9.784;2023-05-19T13:05:24;2.27;;;1.10;;
6251;SDS011;3159;52.414;9.784;2023-05-19T13:07:54;3.97;;;1.30;;
6251;SDS011;3159;52.414;9.784;2023-05-19T13:10:22;5.07;;;1.10;;
6251;SDS011;3159;52.414;9.784;2023-05-19T13:12:51;4.30;;;1.60;;
6251;SDS011;3159;52.414;9.784;2023-05-19T13:15:18;3.97;;;1.20;;
6251;SDS011;3159;52.414;9.784;2023-05-19T13:17:45;1.67;;;1.00;;
6251;SDS011;3159;52.414;9.784;2023-05-19T13:20:12;3.57;;;1.40;;
6251;SDS011;3159;52.414;9.784;2023-05-19T13:22:40;2.33;;;1.20;;
6251;SDS011;3159;52.414;9.784;2023-05-19T13:25:07;5.37;;;1.30;;
6251;SDS011;3159;52.414;9.784;2023-05-19T13:27:35;1.90;;;1.30;;
6251;SDS011;3159;52.414;9.784;2023-05-19T13:30:02;2.73;;;1.13;;
6251;SDS011;3159;52.414;9.784;2023-05-19T13:32:29;1.43;;;1.10;;
6251;SDS011;3159;52.414;9.784;2023-05-19T13:34:56;3.07;;;1.57;;
6251;SDS011;3159;52.414;9.784;2023-05-19T13:37:23;3.27;;;1.53;;
6251;SDS011;3159;52.414;9.784;2023-05-19T13:39:52;3.07;;;1.13;;
6251;SDS011;3159;52.414;9.784;2023-05-19T13:42:19;2.90;;;1.27;;
6251;SDS011;3159;52.414;9.784;2023-05-19T13:44:45;5.30;;;1.13;;
6251;SDS011;3159;52.414;9.784;2023-05-19T13:47:12;2.40;;;1.10;;
6251;SDS011;3159;52.414;9.784;2023-05-19T13:49:39;6.17;;;1.77;;
6251;SDS011;3159;52.414;9.784;2023-05-19T13:52:06;2.87;;;1.13;;
6251;SDS011;3159;52.414;9.784;2023-05-19T13:54:33;2.00;;;1.23;;
6251;SDS011;3159;52.414;9.784;2023-05-19T13:57:01;3.57;;;1.10;;
6251;SDS011;3159;52.414;9.784;2023-05-19T13:59:28;1.17;;;0.80;;
6251;SDS011;3159;52.414;9.784;2023-05-19T14:01:55;2.00;;;1.10;;
6251;SDS011;3159;52.414;9.784;2023-05-19T14:04:22;2.97;;;1.27;;
6251;SDS011;3159;52.414;9.784;2023-05-19T14:06:49;1.43;;;1.33;;
6251;SDS011;3159;52.414;9.784;2023-05-19T14:09:16;5.70;;;1.23;;
6251;SDS011;3159;52.414;9.784;2023-05-19T14:11:43;3.13;;;1.20;;
6251;SDS011;3159;52.414;9.784;2023-05-19T14:14:11;3.30;;;1.10;;
6251;SDS011;3159;52.414;9.784;2023-05-19T14:16:38;1.70;;;1.17;;
6251;SDS011;3159;52.414;9.784;2023-05-19T14:19:05;3.20;;;1.23;;
6251;SDS011;3159;52.414;9.784;2023-05-19T14:21:32;2.97;;;1.37;;
6251;SDS011;3159;52.414;9.784;2023-05-19T14:24:00;2.23;;;0.93;;
6251;SDS011;3159;52.414;9.784;2023-05-19T14:26:27;3.90;;;1.30;;
6251;SDS011;3159;52.414;9.784;2023-05-19T14:28:54;1.40;;;1.10;;
6251;SDS011;3159;52.414;9.784;2023-05-19T14:31:23;4.30;;;1.20;;
6251;SDS011;3159;52.414;9.784;2023-05-19T14:33:50;2.83;;;0.97;;
6251;SDS011;3159;52.414;9.784;2023-05-19T14:36:17;1.97;;;1.10;;
6251;SDS011;3159;52.414;9.784;2023-05-19T14:38:44;2.23;;;1.00;;
6251;SDS011;3159;52.414;9.784;2023-05-19T14:41:11;2.03;;;1.00;;
6251;SDS011;3159;52.414;9.784;2023-05-19T14:43:37;2.60;;;1.27;;
6251;SDS011;3159;52.414;9.784;2023-05-19T14:46:06;1.40;;;1.30;;
6251;SDS011;3159;52.414;9.784;2023-05-19T14:48:34;1.60;;;1.17;;
6251;SDS011;3159;52.414;9.784;2023-05-19T14:51:01;1.33;;;1.07;;
6251;SDS011;3159;52.414;9.784;2023-05-19T14:53:28;1.40;;;0.90;;
6251;SDS011;3159;52.414;9.784;2023-05-19T14:55:54;1.27;;;1.13;;
6251;SDS011;3159;52.414;9.784;2023-05-19T14:58:21;2.40;;;1.37;;
6251;SDS011;3159;52.414;9.784;2023-05-19T15:00:48;3.90;;;1.40;;
6251;SDS011;3159;52.414;9.784;2023-05-19T15:03:15;1.90;;;1.20;;
6251;SDS011;3159;52.414;9.784;2023-05-19T15:05:43;2.07;;;1.10;;
6251;SDS011;3159;52.414;9.784;2023-05-19T15:08:10;4.90;;;1.03;;
6251;SDS011;3159;52.414;9.784;2023-05-19T15:10:37;1.23;;;1.13;;
6251;SDS011;3159;52.414;9.784;2023-05-19T15:13:03;1.10;;;1.00;;
6251;SDS011;3159;52.414;9.784;2023-05-19T15:15:30;1.10;;;0.93;;
6251;SDS011;3159;52.414;9.784;2023-05-19T15:17:57;2.93;;;0.90;;
6251;SDS011;3159;52.414;9.784;2023-05-19T15:20:24;1.87;;;1.17;;
6251;SDS011;3159;52.414;9.784;2023-05-19T15:22:52;2.23;;;1.40;;
6251;SDS011;3159;52.414;9.784;2023-05-19T15:25:19;3.43;;;1.60;;
6251;SDS011;3159;52.414;9.784;2023-05-19T15:27:46;2.13;;;1.30;;
6251;SDS011;3159;52.414;9.784;2023-05-19T15:30:12;2.80;;;1.20;;